Aérodrome :
LOGIN :

S'inscrire | Disclaimer

   EN    FR    IT 

 










Légende :    VFR   VFR Marginal   IFR   IFR Intensif   IFR Très Intensif
Visi : 
Plafond : 
>= 8 km
>= 3000ft
5 à 8 km
1000 à 3000 ft
1500m à 5 km
500 à 1000 ft
800 à 1500m
200 à 500 ft
< 800m
< 200 ft
Symboles :   Orages  Brouillard  Fortes neiges  Fortes précipitations  Vent > 20 kt
SIGMETs :   Divers  Orages  Givrage  Turbulence  Onde Orograph.  Cendres Volcan.






- Altitude de l'aérodrome : 3125 ft
- Code IATA : ESB


LTAC - Ankara Esenboga

DERNIER METAR :
  • 071220Z 29004KT 9999 SCT040 34/07 Q1005 NOSIG RMK RWY21L 32007KT 260V020 RWY03L VRB03KT RWY21R VRB04KT

METARs EXPIRÉS :
  • 071150Z 35008KT 300V040 9999 SCT040 34/06 Q1005 NOSIG RMK RWY21L 20007KT 100V260 RWY03L VRB04KT RWY21R 23009KT 190V260
  • 071120Z 25005KT 210V330 9999 SCT040 34/06 Q1006 NOSIG RMK RWY21L VRB06KT RWY03L VRB04KT RWY21R VRB04KT
  • 071050Z 27008KT 170V330 9999 SCT040 34/07 Q1006 NOSIG
  • 071020Z 25006KT 180V340 9999 SCT040 33/09 Q1006 NOSIG RMK RWY21L VRB04KT RWY03L 22006KT 160V290 RWY21R VRB04KT
  • 070950Z 20010KT 9999 FEW040 33/09 Q1006 NOSIG RMK RWY21L 19007KT 140V260 RWY03L 23007KT 180V280 RWY21R 24006KT 160V290

TAF TAF LTAC
Valide du 07 à 12h jusqu'au 08 à 12h UTC


071040Z 0712/0812 VRB02KT 9999 SCT040
TEMPO 0713/0717 01012KT -TSRA FEW025CB BKN030
TEMPO 0718/0722 34015KT -TSRA FEW025CB BKN030
TEMPO 0801/0805 34012KT -TSRA FEW025CB BKN030



MET'MAP, la Météo Aéronautique d'un coup d'oeil ! - Copyright ORBIFLY Décembre 2007 - Disclaimer

ORBIFLY MET'MAP TEAM :

Programmation & Développement : Alexandra Zaïnal
Sur une idée originale de : Baudouin d'Aumeries
Assistance à la programmation : Marc-Olivier Méhu
Soutien technique & logistique : Manuel Goepfert

Contact : metmap@orbifly.com




SOURCES & CREDITS :

   NOAA